Time;durP1;ratioP1;P1;durP2;ratioP2;P2;SDS_P1;SDS_P2;PMS_P1;PMS_P2;Temp;Humidity;BMP_temperature;BMP_pressure;BME280_temperature;BME280_humidity;BME280_pressure;Samples;Min_cycle;Max_cycle;Signal;HPM_P1;HPM_P2
2023/07/26 00:01:00;;;;;;;6.22;3.80;;;12.10;99.90;;;;;;4970139;28;20080;-79
2023/07/26 00:03:25;;;;;;;8.13;3.78;;;12.10;99.90;;;;;;4985316;28;20071;-79
2023/07/26 00:05:51;;;;;;;5.38;3.72;;;12.10;99.90;;;;;;4953594;28;20105;-79
2023/07/26 00:08:17;;;;;;;7.90;3.95;;;12.10;99.90;;;;;;4968715;28;20066;-79
2023/07/26 00:10:47;;;;;;;4.28;3.60;;;12.10;99.90;;;;;;4986154;28;20731;-79
2023/07/26 00:13:17;;;;;;;6.63;3.85;;;12.10;99.90;;;;;;4986765;28;20506;-79
2023/07/26 00:15:42;;;;;;;7.38;3.70;;;12.10;99.90;;;;;;4985431;28;20580;-79
2023/07/26 00:18:08;;;;;;;6.25;4.10;;;12.10;99.90;;;;;;5005032;28;20042;-79
2023/07/26 00:20:34;;;;;;;4.90;3.80;;;12.10;99.90;;;;;;4974205;28;20073;-79
2023/07/26 00:23:00;;;;;;;5.75;3.70;;;12.10;99.90;;;;;;4989652;28;20042;-79
2023/07/26 00:25:26;;;;;;;6.03;3.88;;;12.10;99.90;;;;;;4973758;28;20042;-79
2023/07/26 00:27:51;;;;;;;9.98;4.10;;;12.10;99.90;;;;;;4988605;28;20070;-79
2023/07/26 00:30:17;;;;;;;6.22;3.70;;;12.10;99.90;;;;;;4967799;28;20408;-79
2023/07/26 00:32:43;;;;;;;7.00;3.85;;;12.10;99.90;;;;;;4964868;28;20113;-79
2023/07/26 00:35:20;;;;;;;7.43;3.97;;;12.10;99.90;;;;;;4941367;28;20058;-79
2023/07/26 00:37:46;;;;;;;7.05;4.07;;;12.10;99.90;;;;;;4971792;28;20036;-79
2023/07/26 00:40:12;;;;;;;5.53;3.75;;;12.10;99.90;;;;;;4957522;28;20038;-79
2023/07/26 00:42:37;;;;;;;9.68;3.90;;;12.10;99.90;;;;;;4973070;28;20046;-79
2023/07/26 00:45:03;;;;;;;4.47;3.85;;;12.10;99.90;;;;;;4987055;28;20494;-79
2023/07/26 00:47:29;;;;;;;8.13;3.83;;;12.10;99.90;;;;;;4944284;28;20097;-79
2023/07/26 00:49:55;;;;;;;5.43;3.85;;;12.00;99.90;;;;;;4973583;28;20038;-79
2023/07/26 00:52:23;;;;;;;7.93;3.65;;;12.10;99.90;;;;;;4953920;28;20030;-79
2023/07/26 00:54:49;;;;;;;5.55;3.53;;;12.10;99.90;;;;;;4970672;28;20125;-79
2023/07/26 00:57:15;;;;;;;6.45;3.53;;;12.10;99.90;;;;;;4953794;28;20125;-79
2023/07/26 00:59:40;;;;;;;5.75;3.60;;;12.10;99.90;;;;;;4956511;28;20034;-79
2023/07/26 01:02:06;;;;;;;6.63;3.80;;;12.10;99.90;;;;;;4957431;28;20039;-79
2023/07/26 01:04:32;;;;;;;6.50;3.83;;;12.10;99.90;;;;;;4972717;28;20048;-79
2023/07/26 01:07:42;;;;;;;5.95;3.50;;;12.10;99.90;;;;;;4957094;28;20042;-79
2023/07/26 01:10:19;;;;;;;4.55;3.67;;;12.10;99.90;;;;;;4938320;28;20085;-79
2023/07/26 01:13:19;;;;;;;6.05;3.60;;;12.10;99.90;;;;;;4972223;28;20050;-79
2023/07/26 01:15:48;;;;;;;6.80;3.65;;;12.10;99.90;;;;;;4963074;28;20042;-79
2023/07/26 01:18:15;;;;;;;5.10;3.22;;;12.10;99.90;;;;;;4971485;28;20038;-79
2023/07/26 01:20:41;;;;;;;8.48;3.92;;;12.10;99.90;;;;;;4957038;28;20709;-79
2023/07/26 01:23:07;;;;;;;7.30;4.38;;;12.10;99.90;;;;;;4941211;28;20045;-79
2023/07/26 01:25:33;;;;;;;6.57;4.15;;;12.10;99.90;;;;;;4969836;28;20042;-79
2023/07/26 01:27:59;;;;;;;6.40;3.70;;;12.10;99.90;;;;;;4954771;28;20046;-79
2023/07/26 01:30:31;;;;;;;5.82;3.80;;;12.10;99.90;;;;;;4969317;28;20042;-79
2023/07/26 01:33:03;;;;;;;9.52;4.18;;;12.20;99.90;;;;;;4973707;28;20101;-79
2023/07/26 01:35:30;;;;;;;6.60;4.00;;;12.10;99.90;;;;;;4981192;28;20121;-79
2023/07/26 01:37:57;;;;;;;5.53;3.78;;;12.10;99.90;;;;;;4978683;28;20492;-79
2023/07/26 01:40:23;;;;;;;7.45;4.05;;;12.10;99.90;;;;;;4979611;28;20049;-79
2023/07/26 01:42:49;;;;;;;6.50;4.22;;;12.20;99.90;;;;;;4959485;28;20399;-79
2023/07/26 01:45:15;;;;;;;5.68;4.28;;;12.20;99.90;;;;;;4974513;28;20042;-79
2023/07/26 01:47:41;;;;;;;8.02;4.68;;;12.20;99.90;;;;;;4967536;28;20038;-79
2023/07/26 01:50:08;;;;;;;5.90;4.43;;;12.20;99.90;;;;;;4977635;28;20112;-79
2023/07/26 01:52:33;;;;;;;5.32;4.45;;;12.20;99.90;;;;;;4963429;28;20066;-79
2023/07/26 01:55:00;;;;;;;9.05;4.53;;;12.20;99.90;;;;;;4961977;28;20034;-79
2023/07/26 01:57:26;;;;;;;6.18;4.18;;;12.30;99.90;;;;;;4995634;28;20038;-79
2023/07/26 01:59:52;;;;;;;8.60;4.65;;;12.30;99.90;;;;;;4951658;28;20101;-79
2023/07/26 02:02:18;;;;;;;5.90;4.35;;;12.30;99.90;;;;;;4973465;28;20042;-79
2023/07/26 02:04:44;;;;;;;7.50;4.88;;;12.30;99.90;;;;;;4958818;28;20077;-79
2023/07/26 02:07:10;;;;;;;8.13;4.68;;;12.30;99.90;;;;;;4963372;28;20049;-79
2023/07/26 02:09:36;;;;;;;5.65;4.72;;;12.30;99.90;;;;;;4962974;28;20067;-78
2023/07/26 02:12:02;;;;;;;5.72;4.85;;;12.30;99.90;;;;;;4970418;28;20176;-79
2023/07/26 02:14:27;;;;;;;8.02;5.13;;;12.30;99.90;;;;;;4962508;28;20521;-79
2023/07/26 02:16:53;;;;;;;7.10;4.85;;;12.30;99.90;;;;;;4950991;28;20042;-79
2023/07/26 02:19:19;;;;;;;8.00;4.80;;;12.30;99.90;;;;;;4992630;28;20034;-79
2023/07/26 02:21:45;;;;;;;8.57;4.88;;;12.20;99.90;;;;;;4986225;28;20023;-79
2023/07/26 02:24:10;;;;;;;8.50;5.07;;;12.20;99.90;;;;;;4945271;28;20042;-79
2023/07/26 02:26:36;;;;;;;7.97;4.80;;;12.20;99.90;;;;;;4948604;28;20416;-79
2023/07/26 02:29:02;;;;;;;6.85;5.65;;;12.20;99.90;;;;;;4995828;28;20042;-79
2023/07/26 02:31:28;;;;;;;8.40;5.70;;;12.20;99.90;;;;;;4993162;28;20041;-79
2023/07/26 02:33:53;;;;;;;6.43;4.55;;;12.10;99.90;;;;;;4988346;28;20042;-79
2023/07/26 02:36:19;;;;;;;7.22;5.05;;;12.10;99.90;;;;;;5000933;28;20490;-79
2023/07/26 02:38:45;;;;;;;7.45;5.25;;;12.10;99.90;;;;;;4980276;28;20514;-79
2023/07/26 02:41:10;;;;;;;7.82;5.63;;;12.10;99.90;;;;;;5008900;28;20121;-79
2023/07/26 02:43:36;;;;;;;8.05;5.53;;;12.00;99.90;;;;;;5010962;28;20059;-79
2023/07/26 02:46:02;;;;;;;8.63;5.97;;;12.00;99.90;;;;;;4990493;28;20052;-79
2023/07/26 02:48:27;;;;;;;7.47;5.32;;;12.00;99.90;;;;;;4975633;28;20038;-79
2023/07/26 02:50:53;;;;;;;10.63;5.30;;;12.00;99.90;;;;;;4991286;28;20091;-79
2023/07/26 02:53:19;;;;;;;6.90;5.68;;;12.00;99.90;;;;;;5009047;28;20034;-79
2023/07/26 02:55:44;;;;;;;9.98;5.97;;;12.00;99.90;;;;;;4989363;28;20053;-79
2023/07/26 02:58:10;;;;;;;7.95;5.68;;;12.00;99.90;;;;;;4991765;28;20042;-77
2023/07/26 03:00:36;;;;;;;8.98;6.50;;;11.90;99.90;;;;;;5003779;28;20088;-77
2023/07/26 03:03:02;;;;;;;8.35;5.47;;;11.90;99.90;;;;;;4976672;28;20045;-77
2023/07/26 03:05:28;;;;;;;9.27;6.18;;;11.90;99.90;;;;;;5006651;28;20142;-77
2023/07/26 03:07:54;;;;;;;8.82;5.78;;;11.90;99.90;;;;;;5000061;28;20048;-77
2023/07/26 03:10:20;;;;;;;7.97;5.97;;;11.90;99.90;;;;;;4984701;28;20042;-77
2023/07/26 03:12:46;;;;;;;7.50;5.90;;;11.90;99.90;;;;;;4991655;28;20052;-77
2023/07/26 03:15:11;;;;;;;8.35;5.95;;;11.90;99.90;;;;;;4990200;28;20102;-77
2023/07/26 03:17:37;;;;;;;7.60;5.82;;;11.80;99.90;;;;;;4990597;28;20231;-77
2023/07/26 03:20:03;;;;;;;10.70;5.97;;;11.80;99.90;;;;;;4974490;28;20060;-77
2023/07/26 03:22:29;;;;;;;8.25;5.45;;;11.80;99.90;;;;;;4990273;28;20283;-77
2023/07/26 03:24:55;;;;;;;8.18;6.22;;;11.70;99.90;;;;;;4992208;28;20049;-77
2023/07/26 03:27:20;;;;;;;8.50;5.68;;;11.70;99.90;;;;;;4986371;28;20554;-77
2023/07/26 03:29:46;;;;;;;9.35;5.50;;;11.70;99.90;;;;;;4957276;28;20038;-77
2023/07/26 03:32:12;;;;;;;9.80;6.20;;;11.70;99.90;;;;;;5005231;28;20092;-77
2023/07/26 03:34:38;;;;;;;7.45;5.40;;;11.70;99.90;;;;;;4989829;28;20062;-77
2023/07/26 03:37:04;;;;;;;8.05;5.63;;;11.60;99.90;;;;;;5005629;28;20038;-77
2023/07/26 03:39:30;;;;;;;7.78;5.72;;;11.60;99.90;;;;;;4990177;28;20486;-76
2023/07/26 03:41:56;;;;;;;6.40;5.60;;;11.60;99.90;;;;;;5006920;28;20092;-76
2023/07/26 03:44:21;;;;;;;8.18;5.40;;;11.60;99.90;;;;;;5007944;28;20125;-76
2023/07/26 03:46:47;;;;;;;9.98;5.68;;;11.60;99.90;;;;;;4992404;28;20100;-76
2023/07/26 03:49:13;;;;;;;8.45;5.22;;;11.50;99.90;;;;;;4984697;28;20042;-76
2023/07/26 03:51:38;;;;;;;8.43;5.13;;;11.50;99.90;;;;;;4990446;28;20077;-76
2023/07/26 03:54:04;;;;;;;7.78;5.20;;;11.50;99.90;;;;;;4994384;28;20367;-76
2023/07/26 03:56:30;;;;;;;7.18;5.47;;;11.50;99.90;;;;;;4991516;28;20124;-76
2023/07/26 03:58:55;;;;;;;8.77;5.40;;;11.50;99.90;;;;;;4986882;28;20042;-76
2023/07/26 04:01:21;;;;;;;11.52;5.72;;;11.50;99.90;;;;;;4970382;28;20046;-76
2023/07/26 04:03:48;;;;;;;9.70;5.95;;;11.50;99.90;;;;;;4958504;28;20145;-77
2023/07/26 04:06:14;;;;;;;7.70;5.18;;;11.50;99.90;;;;;;4989500;28;20048;-76
2023/07/26 04:08:40;;;;;;;8.15;5.22;;;11.50;99.90;;;;;;4989462;28;20088;-76
2023/07/26 04:11:06;;;;;;;8.65;4.60;;;11.50;99.90;;;;;;5006733;28;20076;-77
2023/07/26 04:13:33;;;;;;;6.88;5.07;;;11.50;99.90;;;;;;5004437;28;20120;-77
2023/07/26 04:15:59;;;;;;;7.90;5.15;;;11.50;99.90;;;;;;5020297;28;20042;-77
2023/07/26 04:18:25;;;;;;;6.82;5.70;;;11.50;99.90;;;;;;4989904;28;20112;-76
2023/07/26 04:20:51;;;;;;;6.82;5.07;;;11.50;99.90;;;;;;4988283;28;20046;-76
2023/07/26 04:23:16;;;;;;;7.57;4.95;;;11.50;99.90;;;;;;4989910;28;20120;-76
2023/07/26 04:25:47;;;;;;;7.10;5.07;;;11.50;99.90;;;;;;4988796;28;20045;-76
2023/07/26 04:28:13;;;;;;;9.02;5.43;;;11.50;99.90;;;;;;5006322;28;20042;-76
2023/07/26 04:30:38;;;;;;;6.40;5.28;;;11.60;99.90;;;;;;4973296;28;20561;-76
2023/07/26 04:33:04;;;;;;;9.30;5.13;;;11.60;99.90;;;;;;4958296;28;20049;-77
2023/07/26 04:35:30;;;;;;;7.10;5.03;;;11.60;99.90;;;;;;4973315;28;20061;-77
2023/07/26 04:37:55;;;;;;;7.35;4.97;;;11.70;99.90;;;;;;4972629;28;20051;-76
2023/07/26 04:40:21;;;;;;;7.82;5.20;;;11.80;99.90;;;;;;4988490;28;20504;-76
2023/07/26 04:42:47;;;;;;;6.32;4.90;;;11.80;99.90;;;;;;4986484;28;20104;-76
2023/07/26 04:45:12;;;;;;;6.93;4.95;;;11.80;99.90;;;;;;5003695;28;20121;-76
2023/07/26 04:47:38;;;;;;;7.35;4.90;;;11.90;99.90;;;;;;4988365;28;20523;-76
2023/07/26 04:50:04;;;;;;;5.82;4.82;;;11.90;99.90;;;;;;4987693;28;20042;-76
2023/07/26 04:52:30;;;;;;;6.40;4.70;;;12.00;99.90;;;;;;4987019;28;20068;-76
2023/07/26 04:54:56;;;;;;;5.57;4.55;;;12.00;99.90;;;;;;5003504;28;20763;-76
2023/07/26 04:57:21;;;;;;;8.70;4.80;;;12.00;99.90;;;;;;5003684;28;20046;-77
2023/07/26 04:59:47;;;;;;;8.93;4.78;;;12.10;99.90;;;;;;5004567;28;20076;-76
2023/07/26 05:02:13;;;;;;;6.35;4.68;;;12.10;99.90;;;;;;5005152;28;20042;-76
2023/07/26 05:04:38;;;;;;;7.75;4.82;;;12.10;99.90;;;;;;5001968;28;20045;-76
2023/07/26 05:07:04;;;;;;;7.57;5.40;;;12.20;99.90;;;;;;4988067;28;20045;-76
2023/07/26 05:09:30;;;;;;;7.80;5.20;;;12.20;99.90;;;;;;5003455;28;20503;-76
2023/07/26 05:11:56;;;;;;;8.13;5.05;;;12.20;99.90;;;;;;4986564;28;20813;-76
2023/07/26 05:14:21;;;;;;;9.80;5.25;;;12.30;99.90;;;;;;4987953;28;20034;-76
2023/07/26 05:16:47;;;;;;;7.43;5.15;;;12.30;99.90;;;;;;4986299;28;20618;-76
2023/07/26 05:19:13;;;;;;;8.85;5.70;;;12.30;99.90;;;;;;4988420;28;20041;-76
2023/07/26 05:21:39;;;;;;;5.85;4.78;;;12.30;99.90;;;;;;4988628;28;20121;-77
2023/07/26 05:24:05;;;;;;;8.07;5.00;;;12.30;99.90;;;;;;5004059;28;20161;-76
2023/07/26 05:26:30;;;;;;;9.93;5.57;;;12.30;99.90;;;;;;4957193;28;20779;-76
2023/07/26 05:28:56;;;;;;;7.18;5.40;;;12.30;99.90;;;;;;5002404;28;20407;-76
2023/07/26 05:31:22;;;;;;;9.77;5.93;;;12.30;99.90;;;;;;5018868;28;20048;-76
2023/07/26 05:33:47;;;;;;;7.80;5.35;;;12.40;99.90;;;;;;5003282;28;20455;-76
2023/07/26 05:36:13;;;;;;;7.07;5.38;;;12.40;99.90;;;;;;4984986;28;20116;-76
2023/07/26 05:38:39;;;;;;;6.53;4.88;;;12.40;99.90;;;;;;4986891;28;20487;-79
2023/07/26 05:41:05;;;;;;;6.72;4.55;;;12.50;99.90;;;;;;5004542;28;20030;-79
2023/07/26 05:43:31;;;;;;;6.10;5.13;;;12.50;99.90;;;;;;5004198;28;20121;-79
2023/07/26 05:45:57;;;;;;;5.40;4.43;;;12.50;99.90;;;;;;4986913;28;20049;-79
2023/07/26 05:48:22;;;;;;;10.00;5.55;;;12.50;99.90;;;;;;5004779;28;20033;-79
2023/07/26 05:50:48;;;;;;;6.68;5.18;;;12.60;99.90;;;;;;5004864;28;20069;-79
2023/07/26 05:53:14;;;;;;;9.43;5.13;;;12.60;99.90;;;;;;4986425;28;20046;-79
2023/07/26 05:55:40;;;;;;;9.68;5.30;;;12.60;99.90;;;;;;4989022;28;20376;-79
2023/07/26 05:58:06;;;;;;;10.32;5.78;;;12.50;99.90;;;;;;4987230;28;20041;-79
2023/07/26 06:00:32;;;;;;;13.18;6.10;;;12.50;99.90;;;;;;4985920;28;20044;-79
2023/07/26 06:02:58;;;;;;;6.90;5.68;;;12.50;99.90;;;;;;4987907;28;20181;-79
2023/07/26 06:05:24;;;;;;;6.70;5.57;;;12.50;99.90;;;;;;4969970;28;20061;-79
2023/07/26 06:07:50;;;;;;;8.90;5.88;;;12.50;99.90;;;;;;4985342;28;20034;-79
2023/07/26 06:10:16;;;;;;;7.35;5.43;;;12.40;99.90;;;;;;4985971;28;20058;-79
2023/07/26 06:12:42;;;;;;;8.90;5.28;;;12.40;99.90;;;;;;4992974;28;20038;-79
2023/07/26 06:15:08;;;;;;;9.75;6.22;;;12.50;99.90;;;;;;4989780;28;20543;-79
2023/07/26 06:17:34;;;;;;;10.07;5.93;;;12.50;99.90;;;;;;4975878;28;20041;-80
2023/07/26 06:19:59;;;;;;;9.57;6.70;;;12.50;99.90;;;;;;4970578;28;20050;-79
2023/07/26 06:22:25;;;;;;;7.22;6.05;;;12.60;99.90;;;;;;4994816;28;20126;-79
2023/07/26 06:24:51;;;;;;;8.07;5.97;;;12.60;99.90;;;;;;4994922;28;20096;-80
2023/07/26 06:27:22;;;;;;;8.13;6.05;;;12.70;99.90;;;;;;4995762;28;20037;-80
2023/07/26 06:29:47;;;;;;;11.38;6.75;;;12.70;99.90;;;;;;5007986;28;20096;-82
2023/07/26 06:32:13;;;;;;;6.30;5.65;;;12.80;99.90;;;;;;5011326;28;20030;-82
2023/07/26 06:34:39;;;;;;;7.75;5.80;;;12.90;99.90;;;;;;4979727;28;20050;-83
2023/07/26 06:37:05;;;;;;;9.20;6.00;;;12.90;99.90;;;;;;4996177;28;20050;-82
2023/07/26 06:39:30;;;;;;;12.85;6.68;;;12.90;99.90;;;;;;4980414;28;20058;-83
2023/07/26 06:41:56;;;;;;;8.60;5.72;;;12.90;99.90;;;;;;4995786;28;20068;-83
2023/07/26 06:44:22;;;;;;;8.32;6.15;;;12.90;99.90;;;;;;5008859;28;20046;-83
2023/07/26 06:46:47;;;;;;;7.53;6.00;;;13.00;99.90;;;;;;4969798;28;20065;-83
2023/07/26 06:49:13;;;;;;;9.57;6.50;;;13.00;99.90;;;;;;4990855;28;20545;-83
2023/07/26 06:51:39;;;;;;;8.48;6.03;;;13.10;99.90;;;;;;4992915;28;20120;-83
2023/07/26 06:54:04;;;;;;;12.73;5.75;;;13.10;99.90;;;;;;4991154;28;20046;-81
2023/07/26 06:56:30;;;;;;;8.27;5.90;;;13.20;99.90;;;;;;4980120;28;20077;-81
2023/07/26 06:58:56;;;;;;;9.65;6.32;;;13.30;99.90;;;;;;4993586;28;20116;-81
2023/07/26 07:01:22;;;;;;;7.88;6.00;;;13.40;99.90;;;;;;5006043;28;20121;-79
2023/07/26 07:03:47;;;;;;;9.38;5.95;;;13.40;99.90;;;;;;5008356;28;20053;-79
2023/07/26 07:06:15;;;;;;;8.55;5.88;;;13.40;99.90;;;;;;5011287;28;20503;-79
2023/07/26 07:08:40;;;;;;;7.90;5.80;;;13.50;99.90;;;;;;4993803;28;20041;-79
2023/07/26 07:11:06;;;;;;;6.95;5.50;;;13.60;99.90;;;;;;5011321;28;20048;-79
2023/07/26 07:13:36;;;;;;;8.90;5.97;;;13.60;99.90;;;;;;5011538;28;20041;-79
2023/07/26 07:16:06;;;;;;;7.47;5.13;;;13.70;99.90;;;;;;4994276;28;20041;-79
2023/07/26 07:18:32;;;;;;;8.73;6.28;;;13.80;99.90;;;;;;4979492;28;20049;-79
2023/07/26 07:21:00;;;;;;;6.10;5.18;;;13.90;99.90;;;;;;4992324;28;20459;-79
2023/07/26 07:23:25;;;;;;;8.07;5.22;;;13.80;99.90;;;;;;4992176;28;20046;-79
2023/07/26 07:25:51;;;;;;;6.88;5.20;;;13.80;99.90;;;;;;4982250;28;20044;-79
2023/07/26 07:28:17;;;;;;;10.50;5.43;;;13.80;99.90;;;;;;5011252;28;20129;-79
2023/07/26 07:30:43;;;;;;;7.05;5.45;;;13.90;99.90;;;;;;4989901;28;20042;-79
2023/07/26 07:33:09;;;;;;;6.00;4.65;;;14.00;99.90;;;;;;4991623;28;20125;-79
2023/07/26 07:35:35;;;;;;;6.78;5.43;;;13.90;99.90;;;;;;4972536;28;20461;-79
2023/07/26 07:38:00;;;;;;;7.07;5.13;;;13.90;99.90;;;;;;4984641;28;20125;-79
2023/07/26 07:40:26;;;;;;;5.97;4.97;;;13.90;99.90;;;;;;4958312;28;20049;-79
2023/07/26 07:42:52;;;;;;;6.40;5.30;;;13.90;99.90;;;;;;4958792;28;20146;-79
2023/07/26 07:45:18;;;;;;;7.85;5.88;;;13.90;99.90;;;;;;4926791;28;20045;-79
2023/07/26 07:47:43;;;;;;;8.07;5.97;;;13.80;99.90;;;;;;4958510;28;20045;-79
2023/07/26 07:50:09;;;;;;;8.55;5.82;;;13.90;99.90;;;;;;4959066;28;20105;-79
2023/07/26 07:52:35;;;;;;;9.30;5.93;;;13.90;99.90;;;;;;4975335;28;20034;-79
2023/07/26 07:55:00;;;;;;;8.75;6.38;;;13.90;99.90;;;;;;4958900;28;20128;-79
2023/07/26 07:57:26;;;;;;;7.72;6.00;;;14.00;99.90;;;;;;4942869;28;20082;-79
2023/07/26 07:59:52;;;;;;;8.27;6.35;;;13.90;99.90;;;;;;4973156;28;20056;-79
2023/07/26 08:02:18;;;;;;;7.13;5.68;;;13.90;99.90;;;;;;4975054;28;20046;-79
2023/07/26 08:04:44;;;;;;;7.03;6.07;;;13.80;99.90;;;;;;4974896;28;20089;-79
2023/07/26 08:07:09;;;;;;;10.57;6.22;;;13.80;99.90;;;;;;4971290;28;20042;-79
2023/07/26 08:09:35;;;;;;;11.23;7.03;;;13.70;99.90;;;;;;4957966;28;20053;-79
2023/07/26 08:12:01;;;;;;;12.23;6.40;;;13.60;99.90;;;;;;4958141;28;20161;-79
2023/07/26 08:14:26;;;;;;;8.07;6.07;;;13.50;99.90;;;;;;4974383;28;20030;-80
2023/07/26 08:16:53;;;;;;;6.53;4.65;;;13.40;99.90;;;;;;4958748;28;20049;-80
2023/07/26 08:19:19;;;;;;;9.50;4.78;;;13.30;99.90;;;;;;4959038;28;20053;-80
2023/07/26 08:21:45;;;;;;;7.45;5.05;;;13.10;99.90;;;;;;4974101;28;20042;-79
2023/07/26 08:24:10;;;;;;;10.63;5.50;;;13.00;99.90;;;;;;4974739;28;20038;-80
2023/07/26 08:26:37;;;;;;;7.45;5.20;;;13.00;99.90;;;;;;4958561;28;20050;-79
2023/07/26 08:29:03;;;;;;;8.38;5.50;;;13.00;99.90;;;;;;4973691;28;20121;-79
2023/07/26 08:31:29;;;;;;;8.60;5.47;;;12.90;99.90;;;;;;4957298;28;20125;-77
2023/07/26 08:33:54;;;;;;;7.60;5.30;;;13.00;99.90;;;;;;4977045;28;20050;-77
2023/07/26 08:36:20;;;;;;;8.65;5.55;;;13.10;99.90;;;;;;4990477;28;20069;-77
2023/07/26 08:38:46;;;;;;;9.45;5.78;;;13.10;99.90;;;;;;4990569;28;20073;-76
2023/07/26 08:41:12;;;;;;;11.90;6.07;;;13.30;99.90;;;;;;4989829;28;20070;-76
2023/07/26 08:43:39;;;;;;;8.30;6.50;;;13.30;99.90;;;;;;4989264;28;20038;-76
2023/07/26 08:46:09;;;;;;;7.63;5.53;;;13.40;99.90;;;;;;4974189;28;20089;-76
2023/07/26 08:48:37;;;;;;;6.20;5.25;;;13.60;99.90;;;;;;4974536;28;20451;-76
2023/07/26 08:51:05;;;;;;;8.23;4.80;;;13.60;99.90;;;;;;4973174;28;20038;-76
2023/07/26 08:53:31;;;;;;;6.50;4.63;;;13.80;99.90;;;;;;4974211;28;20042;-76
2023/07/26 08:55:57;;;;;;;6.50;4.72;;;14.00;99.90;;;;;;4973929;28;20035;-76
2023/07/26 08:58:22;;;;;;;6.95;4.97;;;14.00;99.90;;;;;;4971619;28;20043;-77
2023/07/26 09:00:48;;;;;;;7.00;4.78;;;14.10;99.90;;;;;;4973087;28;20046;-76
2023/07/26 09:03:16;;;;;;;6.70;4.70;;;14.10;99.90;;;;;;4957229;28;20509;-76
2023/07/26 09:05:42;;;;;;;5.63;4.57;;;14.20;99.90;;;;;;4974300;28;20491;-76
2023/07/26 09:08:08;;;;;;;7.68;4.50;;;14.30;99.90;;;;;;4980698;28;20046;-76
2023/07/26 09:10:34;;;;;;;7.00;4.57;;;14.40;99.90;;;;;;4989149;28;20118;-76
2023/07/26 09:13:09;;;;;;;4.97;3.90;;;14.40;99.90;;;;;;4957848;28;20125;-76
2023/07/26 09:15:39;;;;;;;6.18;3.70;;;14.50;99.90;;;;;;4973472;28;20070;-76
2023/07/26 09:18:05;;;;;;;4.53;3.50;;;14.50;99.90;;;;;;4973610;28;20038;-76
2023/07/26 09:20:32;;;;;;;4.70;3.17;;;14.60;99.90;;;;;;4990318;28;20136;-77
2023/07/26 09:23:09;;;;;;;4.53;3.45;;;14.50;99.90;;;;;;4954681;28;20129;-76
2023/07/26 09:25:39;;;;;;;6.05;3.45;;;14.70;99.90;;;;;;4954398;28;20065;-76
2023/07/26 09:28:07;;;;;;;3.55;2.75;;;14.90;99.90;;;;;;4976223;28;20084;-76
2023/07/26 09:30:37;;;;;;;5.72;3.13;;;15.00;99.90;;;;;;4973398;28;20046;-76
2023/07/26 09:33:06;;;;;;;3.17;2.88;;;15.20;99.90;;;;;;4989838;28;20049;-76
2023/07/26 09:35:32;;;;;;;3.35;2.75;;;15.50;99.90;;;;;;4989491;28;20466;-76
2023/07/26 09:38:08;;;;;;;2.88;2.55;;;15.70;99.90;;;;;;4982882;28;20050;-76
2023/07/26 09:40:34;;;;;;;2.70;2.28;;;15.80;99.90;;;;;;4973595;28;20049;-76
2023/07/26 09:43:01;;;;;;;3.03;2.00;;;15.90;99.90;;;;;;4971441;28;20054;-76
2023/07/26 09:45:26;;;;;;;2.53;2.20;;;16.20;99.90;;;;;;4957536;28;20050;-76
2023/07/26 09:48:04;;;;;;;3.42;2.40;;;16.20;99.90;;;;;;4973045;28;20047;-76
2023/07/26 09:50:30;;;;;;;3.75;2.05;;;16.20;99.90;;;;;;4973595;28;20129;-76
2023/07/26 09:52:57;;;;;;;2.83;2.50;;;16.20;99.90;;;;;;4980615;28;20538;-76
2023/07/26 09:55:24;;;;;;;3.92;2.30;;;16.30;99.90;;;;;;4977271;28;20137;-76
2023/07/26 09:57:56;;;;;;;3.90;2.85;;;16.10;99.90;;;;;;4993500;28;20080;-76
2023/07/26 10:00:23;;;;;;;;;;;16.20;99.90;;;;;;4993746;28;20050;-76
2023/07/26 10:02:55;;;;;;;4.38;2.90;;;16.20;99.90;;;;;;4978625;28;20008;-76
2023/07/26 10:05:22;;;;;;;5.20;2.92;;;16.40;99.90;;;;;;4993615;28;20085;-76
2023/07/26 10:07:48;;;;;;;4.40;3.08;;;16.60;99.90;;;;;;4977369;28;20038;-77
2023/07/26 10:10:16;;;;;;;4.95;3.22;;;16.70;99.90;;;;;;4975689;28;20661;-76
2023/07/26 10:12:46;;;;;;;5.13;3.47;;;17.00;99.90;;;;;;4973720;28;20042;-76
2023/07/26 10:15:13;;;;;;;3.15;2.70;;;17.10;99.90;;;;;;4972922;28;20173;-76
2023/07/26 10:17:41;;;;;;;3.65;2.80;;;17.20;99.90;;;;;;4976905;28;20126;-76
2023/07/26 10:20:09;;;;;;;3.17;2.70;;;17.20;99.90;;;;;;4992334;28;20042;-76
2023/07/26 10:22:36;;;;;;;5.40;4.32;;;17.20;99.90;;;;;;4958235;28;20712;-76
2023/07/26 10:25:02;;;;;;;5.20;2.50;;;17.50;99.90;;;;;;4977383;28;20042;-76
2023/07/26 10:27:28;;;;;;;4.43;2.67;;;17.60;99.90;;;;;;4960758;28;20415;-76
2023/07/26 10:29:54;;;;;;;4.25;3.03;;;17.70;99.90;;;;;;5008644;28;20039;-76
2023/07/26 10:32:20;;;;;;;6.82;2.90;;;17.80;99.90;;;;;;4960654;28;20108;-76
2023/07/26 10:34:54;;;;;;;3.33;2.65;;;17.90;99.90;;;;;;4973330;28;20125;-76
2023/07/26 10:37:19;;;;;;;3.42;2.47;;;17.90;99.90;;;;;;4957210;28;20035;-76
2023/07/26 10:39:46;;;;;;;4.05;2.47;;;17.90;99.90;;;;;;4990253;28;20042;-76
2023/07/26 10:42:28;;;;;;;4.65;2.65;;;17.90;99.90;;;;;;4993155;28;20399;-76
2023/07/26 10:44:59;;;;;;;4.25;2.92;;;17.90;99.90;;;;;;4999328;28;20822;-76
2023/07/26 10:47:25;;;;;;;4.28;2.85;;;17.90;99.90;;;;;;4990696;28;20042;-76
2023/07/26 10:49:54;;;;;;;4.25;3.15;;;18.00;99.90;;;;;;4988013;28;20052;-76
2023/07/26 10:52:20;;;;;;;3.75;2.83;;;18.20;99.90;;;;;;4962297;28;20042;-76
2023/07/26 10:54:51;;;;;;;5.30;2.78;;;18.10;99.90;;;;;;4975128;28;20431;-76
2023/07/26 10:57:31;;;;;;;4.38;2.90;;;18.20;99.90;;;;;;4970977;28;20042;-76
2023/07/26 11:00:10;;;;;;;4.20;2.63;;;18.30;99.90;;;;;;4991586;28;20438;-76
2023/07/26 11:02:37;;;;;;;4.00;2.70;;;18.30;99.90;;;;;;4975032;28;20997;-75
2023/07/26 11:05:10;;;;;;;4.65;2.80;;;18.10;99.90;;;;;;4991488;28;20042;-76
2023/07/26 11:08:20;;;;;;;4.85;3.28;;;17.90;99.90;;;;;;4991886;28;20129;-76
2023/07/26 11:10:51;;;;;;;3.50;2.70;;;18.30;99.90;;;;;;4971458;28;20058;-79
2023/07/26 11:13:26;;;;;;;4.57;2.92;;;18.70;99.90;;;;;;4984594;28;20042;-79
2023/07/26 11:15:52;;;;;;;3.50;2.42;;;18.90;99.90;;;;;;4991797;28;20067;-79
2023/07/26 11:18:20;;;;;;;4.82;3.35;;;19.00;99.90;;;;;;4991585;28;20042;-79
2023/07/26 11:20:48;;;;;;;3.97;2.75;;;18.90;99.90;;;;;;4992087;28;20038;-79
2023/07/26 11:23:25;;;;;;;3.58;2.40;;;18.80;99.90;;;;;;4976097;28;20443;-79
2023/07/26 11:25:56;;;;;;;2.70;2.15;;;18.80;99.90;;;;;;4988845;28;20047;-79
2023/07/26 11:28:23;;;;;;;3.93;2.53;;;18.80;99.90;;;;;;4964466;28;20049;-76
2023/07/26 11:30:54;;;;;;;3.38;2.40;;;18.90;99.90;;;;;;4957484;28;20038;-76
2023/07/26 11:33:35;;;;;;;3.13;2.50;;;19.00;99.90;;;;;;4992254;28;20053;-77
2023/07/26 11:36:03;;;;;;;4.53;2.45;;;19.20;99.90;;;;;;4957755;28;20058;-77
2023/07/26 11:38:29;;;;;;;4.78;2.17;;;19.10;99.90;;;;;;4983961;28;20053;-77
2023/07/26 11:40:58;;;;;;;3.83;2.38;;;18.90;99.90;;;;;;4975439;28;20042;-77
2023/07/26 11:43:25;;;;;;;5.93;2.47;;;18.60;99.90;;;;;;4974854;28;20053;-77
2023/07/26 11:45:53;;;;;;;4.00;2.60;;;18.30;99.90;;;;;;4971902;28;20039;-77
2023/07/26 11:48:19;;;;;;;4.05;2.50;;;17.90;99.90;;;;;;4982694;28;20046;-77
2023/07/26 11:50:45;;;;;;;4.38;2.55;;;17.50;99.90;;;;;;4991399;28;20043;-77
2023/07/26 11:53:15;;;;;;;3.75;2.03;;;17.00;99.90;;;;;;4975513;28;20035;-76
2023/07/26 11:55:44;;;;;;;2.90;1.88;;;16.70;99.90;;;;;;4977459;28;20046;-76
2023/07/26 11:58:11;;;;;;;2.88;1.65;;;16.60;99.90;;;;;;4980679;28;20039;-76
2023/07/26 12:00:41;;;;;;;1.23;1.08;;;16.50;99.90;;;;;;4990927;28;20050;-79
2023/07/26 12:03:07;;;;;;;1.30;1.15;;;16.80;99.90;;;;;;4991750;28;20038;-79
2023/07/26 12:05:33;;;;;;;3.45;1.50;;;17.10;99.90;;;;;;4979495;28;20134;-79
2023/07/26 12:08:03;;;;;;;1.30;1.00;;;17.40;99.90;;;;;;4979025;28;20096;-79
2023/07/26 12:10:34;;;;;;;2.17;1.08;;;17.60;99.90;;;;;;4985296;28;20074;-80
2023/07/26 12:13:04;;;;;;;2.28;1.42;;;17.90;99.90;;;;;;4974817;28;20455;-79
2023/07/26 12:15:30;;;;;;;2.63;1.80;;;18.10;99.90;;;;;;4974962;28;20419;-78
2023/07/26 12:18:02;;;;;;;2.50;1.60;;;18.40;99.90;;;;;;5007561;28;20038;-79
2023/07/26 12:20:31;;;;;;;;;;;18.60;99.90;;;;;;4991601;28;20042;-79
2023/07/26 12:23:00;;;;;;;3.83;2.13;;;18.80;99.90;;;;;;4991370;28;20369;-79
2023/07/26 12:25:37;;;;;;;2.80;1.80;;;18.80;99.90;;;;;;4970801;28;20074;-79
2023/07/26 12:28:07;;;;;;;3.95;2.17;;;18.70;99.90;;;;;;4958705;28;20034;-79
2023/07/26 12:30:34;;;;;;;3.90;1.80;;;18.60;99.90;;;;;;4980541;28;20050;-78
2023/07/26 12:33:09;;;;;;;2.80;1.67;;;18.80;99.90;;;;;;4974582;28;20046;-78
2023/07/26 12:35:35;;;;;;;4.68;1.90;;;19.10;99.90;;;;;;4973485;28;20065;-77
2023/07/26 12:38:09;;;;;;;2.03;1.30;;;19.30;99.90;;;;;;4957977;28;20038;-77
2023/07/26 12:40:35;;;;;;;3.35;1.30;;;19.60;99.90;;;;;;4958298;28;20053;-76
2023/07/26 12:43:21;;;;;;;3.70;1.80;;;19.70;99.90;;;;;;4957974;28;20050;-77
2023/07/26 12:45:47;;;;;;;4.50;1.48;;;19.70;99.90;;;;;;4953142;28;20038;-77
2023/07/26 12:48:13;;;;;;;2.50;1.48;;;19.80;99.90;;;;;;4954970;28;20412;-77